createdAt,value
2023-03-20T00:02:00.336Z,3.72
2023-03-20T00:04:27.668Z,4.13
2023-03-20T00:06:54.843Z,3.38
2023-03-20T00:09:22.072Z,3.88
2023-03-20T00:11:51.639Z,3.20
2023-03-20T00:14:22.653Z,3.40
2023-03-20T00:16:51.216Z,4.35
2023-03-20T00:19:23.548Z,3.65
2023-03-20T00:21:52.257Z,2.13
2023-03-20T00:24:20.043Z,3.83
2023-03-20T00:26:48.927Z,4.35
2023-03-20T00:29:26.297Z,3.45
2023-03-20T00:31:54.330Z,7.13
2023-03-20T00:34:23.985Z,7.97
2023-03-20T00:36:52.008Z,3.97
2023-03-20T00:39:19.264Z,5.45
2023-03-20T00:41:50.624Z,3.83
2023-03-20T00:44:26.156Z,6.57
2023-03-20T00:46:59.729Z,3.72
2023-03-20T00:49:29.859Z,8.68
2023-03-20T00:51:57.201Z,6.28
2023-03-20T00:54:24.599Z,5.82
2023-03-20T00:57:06.909Z,6.38
2023-03-20T00:59:38.125Z,8.43
2023-03-20T01:02:05.593Z,7.80
2023-03-20T01:04:39.221Z,4.97
2023-03-20T01:07:08.069Z,7.30
2023-03-20T01:09:35.192Z,3.88
2023-03-20T01:12:03.280Z,4.50
2023-03-20T01:14:30.803Z,5.63
2023-03-20T01:16:57.703Z,5.75
2023-03-20T01:19:24.887Z,3.30
2023-03-20T01:21:51.938Z,5.10
2023-03-20T01:24:18.957Z,5.35
2023-03-20T01:26:47.027Z,8.23
2023-03-20T01:29:20.541Z,4.40
2023-03-20T01:31:48.182Z,4.22
2023-03-20T01:34:16.750Z,6.00
2023-03-20T01:36:50.654Z,3.63
2023-03-20T01:39:19.290Z,4.03
2023-03-20T01:41:47.251Z,4.45
2023-03-20T01:44:23.917Z,4.95
2023-03-20T01:46:53.874Z,8.50
2023-03-20T01:49:20.756Z,7.78
2023-03-20T01:51:52.070Z,3.97
2023-03-20T01:54:37.722Z,4.78
2023-03-20T01:57:18.813Z,4.85
2023-03-20T01:59:51.842Z,4.43
2023-03-20T02:02:26.242Z,5.13
2023-03-20T02:04:59.889Z,6.97
2023-03-20T02:07:27.010Z,5.88
2023-03-20T02:09:54.070Z,3.97
2023-03-20T02:12:22.796Z,3.35
2023-03-20T02:14:50.820Z,2.97
2023-03-20T02:17:17.988Z,6.38
2023-03-20T02:20:34.498Z,4.63
2023-03-20T02:23:04.337Z,5.30
2023-03-20T02:25:37.832Z,4.20
2023-03-20T02:28:24.575Z,4.60
2023-03-20T02:31:15.509Z,4.30
2023-03-20T02:34:26.432Z,5.22
2023-03-20T02:36:56.361Z,5.05
2023-03-20T02:39:26.593Z,4.78
2023-03-20T02:41:56.241Z,9.07
2023-03-20T02:44:26.226Z,7.57
2023-03-20T02:47:11.458Z,7.10
2023-03-20T02:50:02.863Z,16.23
2023-03-20T02:52:51.566Z,7.03
2023-03-20T02:55:34.453Z,8.40
2023-03-20T02:58:26.765Z,5.38
2023-03-20T03:01:11.789Z,3.17
2023-03-20T03:03:53.822Z,11.55
2023-03-20T03:06:34.756Z,7.18
2023-03-20T03:09:07.397Z,2.35
2023-03-20T03:11:38.125Z,19.55
2023-03-20T03:14:06.658Z,77.63
2023-03-20T03:16:37.194Z,66.05
2023-03-20T03:19:09.873Z,13.00
2023-03-20T03:21:39.452Z,9.23
2023-03-20T03:24:21.750Z,30.48
2023-03-20T03:26:53.925Z,15.57
2023-03-20T03:29:24.765Z,29.73
2023-03-20T03:31:52.859Z,68.50
2023-03-20T03:34:22.244Z,48.85
2023-03-20T03:37:11.362Z,40.75
2023-03-20T03:40:00.509Z,71.30
2023-03-20T03:42:35.832Z,60.35
2023-03-20T03:45:07.006Z,57.88
2023-03-20T03:47:43.501Z,85.22
2023-03-20T03:50:19.058Z,80.68
2023-03-20T03:52:49.582Z,126.78
2023-03-20T03:55:22.251Z,89.82
2023-03-20T03:57:57.802Z,74.60
2023-03-20T04:00:27.652Z,132.00
2023-03-20T04:02:58.148Z,109.63
2023-03-20T04:05:31.838Z,120.53
2023-03-20T04:08:01.442Z,100.22
2023-03-20T04:10:28.337Z,57.90
2023-03-20T04:12:55.435Z,48.97
2023-03-20T04:15:22.583Z,27.00
2023-03-20T04:17:49.496Z,57.63
2023-03-20T04:20:16.830Z,66.45
2023-03-20T04:22:43.953Z,84.53
2023-03-20T04:25:23.277Z,73.10
2023-03-20T04:27:50.648Z,95.88
2023-03-20T04:30:18.050Z,87.93
2023-03-20T04:32:45.230Z,59.58
2023-03-20T04:35:12.382Z,67.97
2023-03-20T04:37:39.523Z,48.10
2023-03-20T04:40:07.075Z,37.40
2023-03-20T04:42:34.070Z,40.13
2023-03-20T04:45:01.365Z,55.85
2023-03-20T04:47:28.304Z,52.47
2023-03-20T04:49:55.246Z,52.35
2023-03-20T04:52:22.150Z,55.00
2023-03-20T04:54:49.271Z,73.90
2023-03-20T04:57:16.886Z,49.97
2023-03-20T04:59:43.806Z,58.63
2023-03-20T05:02:14.995Z,30.90
2023-03-20T05:04:45.390Z,26.20
2023-03-20T05:07:12.571Z,35.30
2023-03-20T05:09:39.519Z,26.83
2023-03-20T05:12:07.228Z,27.73
2023-03-20T05:14:34.150Z,11.15
2023-03-20T05:17:01.405Z,36.45
2023-03-20T05:19:28.422Z,18.60
2023-03-20T05:21:55.830Z,16.60
2023-03-20T05:24:23.379Z,52.85
2023-03-20T05:26:50.486Z,44.47
2023-03-20T05:29:17.400Z,19.88
2023-03-20T05:31:44.338Z,30.42
2023-03-20T05:34:11.314Z,25.67
2023-03-20T05:36:38.380Z,67.13
2023-03-20T05:39:06.380Z,83.53
2023-03-20T05:41:33.727Z,96.13
2023-03-20T05:44:00.886Z,96.80
2023-03-20T05:46:28.036Z,119.70
2023-03-20T05:48:55.123Z,106.93
2023-03-20T05:51:22.261Z,76.65
2023-03-20T05:53:49.224Z,81.22
2023-03-20T05:56:16.249Z,73.65
2023-03-20T05:58:43.285Z,57.00
2023-03-20T06:01:10.222Z,59.20
2023-03-20T06:03:37.222Z,100.70
2023-03-20T06:06:04.833Z,67.80
2023-03-20T06:08:31.820Z,75.25
2023-03-20T06:10:58.737Z,64.85
2023-03-20T06:13:25.976Z,81.35
2023-03-20T06:15:52.954Z,108.68
2023-03-20T06:18:20.043Z,32.55
2023-03-20T06:20:47.010Z,65.15
2023-03-20T06:23:14.126Z,60.92
2023-03-20T06:25:41.198Z,79.40
2023-03-20T06:28:08.509Z,62.00
2023-03-20T06:30:35.834Z,100.07
2023-03-20T06:33:03.058Z,85.57
2023-03-20T06:35:31.787Z,61.53
2023-03-20T06:37:59.099Z,26.98
2023-03-20T06:40:27.423Z,142.65
2023-03-20T06:42:54.878Z,75.38
2023-03-20T06:45:22.436Z,3.92
2023-03-20T06:47:49.476Z,12.50
2023-03-20T06:50:16.736Z,52.95
2023-03-20T06:52:45.081Z,63.40
2023-03-20T06:55:12.280Z,97.25
2023-03-20T06:57:39.490Z,77.65
2023-03-20T07:00:08.163Z,23.58
2023-03-20T07:02:35.144Z,65.03
2023-03-20T07:05:02.486Z,84.25
2023-03-20T07:07:29.513Z,51.15
2023-03-20T07:09:56.647Z,35.60
2023-03-20T07:12:28.477Z,59.40
2023-03-20T07:14:56.208Z,20.33
2023-03-20T07:17:23.691Z,35.60
2023-03-20T07:19:50.641Z,28.63
2023-03-20T07:22:26.167Z,2.60
2023-03-20T07:24:53.494Z,3.58
2023-03-20T07:27:21.615Z,19.08
2023-03-20T07:29:48.548Z,3.30
2023-03-20T07:32:16.689Z,33.08
2023-03-20T07:34:44.117Z,23.58
2023-03-20T07:37:11.487Z,31.85
2023-03-20T07:39:38.549Z,70.90
2023-03-20T07:42:05.536Z,89.30
2023-03-20T07:44:32.712Z,8.30
2023-03-20T07:46:59.642Z,46.92
2023-03-20T07:49:26.679Z,4.32
2023-03-20T07:51:57.164Z,45.97
2023-03-20T07:54:24.779Z,47.90
2023-03-20T07:56:51.983Z,18.30
2023-03-20T07:59:19.625Z,48.92
2023-03-20T08:01:46.549Z,21.83
2023-03-20T08:04:14.136Z,36.05
2023-03-20T08:06:41.669Z,21.27
2023-03-20T08:09:08.821Z,20.92
2023-03-20T08:11:35.812Z,15.02
2023-03-20T08:14:02.878Z,24.38
2023-03-20T08:16:30.115Z,17.75
2023-03-20T08:19:01.616Z,40.42
2023-03-20T08:21:30.343Z,13.25
2023-03-20T08:23:57.957Z,5.80
2023-03-20T08:26:25.622Z,17.90
2023-03-20T08:28:52.877Z,25.27
2023-03-20T08:31:20.174Z,14.63
2023-03-20T08:33:47.658Z,25.85
2023-03-20T08:36:16.081Z,5.10
2023-03-20T08:38:43.666Z,25.95
2023-03-20T08:41:11.157Z,24.70
2023-03-20T08:43:38.443Z,28.73
2023-03-20T08:46:06.433Z,23.27
2023-03-20T08:48:33.652Z,32.15
2023-03-20T08:51:01.077Z,18.10
2023-03-20T08:53:28.172Z,23.60
2023-03-20T08:55:55.624Z,3.22
2023-03-20T08:58:23.086Z,10.15
2023-03-20T09:00:50.900Z,2.80
2023-03-20T09:03:21.288Z,3.83
2023-03-20T09:05:51.076Z,2.53
2023-03-20T09:08:18.712Z,2.75
2023-03-20T09:10:48.380Z,2.08
2023-03-20T09:13:26.792Z,2.33
2023-03-20T09:15:56.157Z,2.17
2023-03-20T09:18:24.126Z,2.47
2023-03-20T09:20:51.779Z,2.70
2023-03-20T09:23:19.704Z,2.72
2023-03-20T09:25:47.837Z,2.80
2023-03-20T09:28:15.394Z,2.80
2023-03-20T09:30:43.895Z,3.20
2023-03-20T09:33:11.632Z,3.10
2023-03-20T09:35:38.965Z,3.30
2023-03-20T09:38:06.920Z,4.05
2023-03-20T09:40:37.039Z,4.47
2023-03-20T09:43:29.262Z,3.67
2023-03-20T09:45:59.298Z,4.07
2023-03-20T09:48:43.545Z,3.22
2023-03-20T09:51:19.937Z,4.28
2023-03-20T09:53:54.228Z,3.78
2023-03-20T09:56:25.751Z,5.25
2023-03-20T09:58:56.732Z,3.40
2023-03-20T10:01:47.713Z,3.88
2023-03-20T10:04:14.973Z,3.25
2023-03-20T10:06:42.013Z,4.50
2023-03-20T10:09:22.246Z,3.50
2023-03-20T10:11:55.781Z,2.38
2023-03-20T10:14:36.333Z,3.00
2023-03-20T10:17:03.526Z,2.03
2023-03-20T10:19:32.652Z,2.50
2023-03-20T10:22:02.595Z,2.78
2023-03-20T10:24:36.413Z,3.00
2023-03-20T10:27:29.046Z,2.80
2023-03-20T10:30:26.479Z,2.92
2023-03-20T10:33:04.694Z,2.40
2023-03-20T10:35:43.638Z,2.70
2023-03-20T10:38:39.623Z,3.55
2023-03-20T10:41:14.344Z,2.95
2023-03-20T10:43:43.833Z,2.42
2023-03-20T10:46:22.414Z,1.90
2023-03-20T10:49:03.180Z,3.50
2023-03-20T10:52:05.326Z,3.33
2023-03-20T10:54:41.342Z,2.38
2023-03-20T10:57:23.327Z,2.58
2023-03-20T10:59:57.214Z,2.42
2023-03-20T11:02:30.579Z,2.47
2023-03-20T11:05:21.248Z,2.95
2023-03-20T11:07:51.840Z,1.90
2023-03-20T11:10:19.134Z,2.85
2023-03-20T11:12:50.226Z,1.77
2023-03-20T11:15:27.447Z,1.30
2023-03-20T11:17:57.200Z,1.20
2023-03-20T11:20:26.490Z,3.00
2023-03-20T11:22:59.993Z,1.30
2023-03-20T11:25:36.872Z,1.13
2023-03-20T11:28:49.233Z,3.30
2023-03-20T11:31:20.584Z,5.53
2023-03-20T11:33:54.062Z,1.60
2023-03-20T11:36:30.335Z,2.72
2023-03-20T11:39:16.724Z,3.67
2023-03-20T11:41:47.807Z,1.27
2023-03-20T11:44:27.049Z,1.50
2023-03-20T11:47:28.508Z,2.38
2023-03-20T11:49:59.363Z,2.97
2023-03-20T11:52:32.977Z,1.73
2023-03-20T11:55:03.522Z,1.88
2023-03-20T11:57:40.132Z,1.58
2023-03-20T12:00:23.357Z,1.88
2023-03-20T12:02:50.979Z,2.58
2023-03-20T12:05:39.816Z,1.20
2023-03-20T12:08:16.734Z,1.92
2023-03-20T12:10:51.728Z,1.75
2023-03-20T12:13:26.254Z,0.95
2023-03-20T12:16:08.329Z,1.30
2023-03-20T12:18:38.256Z,1.10
2023-03-20T12:21:09.972Z,1.80
2023-03-20T12:23:39.826Z,0.90
2023-03-20T12:26:33.156Z,1.77
2023-03-20T12:29:11.274Z,1.23
2023-03-20T12:32:11.194Z,1.65
2023-03-20T12:34:47.246Z,1.20
2023-03-20T12:37:18.595Z,1.48
2023-03-20T12:39:56.209Z,2.25
2023-03-20T12:42:46.161Z,1.63
2023-03-20T12:45:15.118Z,2.10
2023-03-20T12:48:13.394Z,1.10
2023-03-20T12:50:43.106Z,0.70
2023-03-20T12:53:10.207Z,0.98
2023-03-20T12:56:16.375Z,2.15
2023-03-20T12:59:07.566Z,0.75
2023-03-20T13:01:46.214Z,1.15
2023-03-20T13:04:32.441Z,1.35
2023-03-20T13:07:02.450Z,1.65
2023-03-20T13:10:04.019Z,1.50
2023-03-20T13:12:57.902Z,2.03
2023-03-20T13:15:59.074Z,0.50
2023-03-20T13:19:11.088Z,0.70
2023-03-20T13:21:56.842Z,0.50
2023-03-20T13:24:41.547Z,1.88
2023-03-20T13:27:20.366Z,0.82
2023-03-20T13:30:03.735Z,0.75
2023-03-20T13:32:49.266Z,0.80
2023-03-20T13:35:25.374Z,0.70
2023-03-20T13:38:00.250Z,2.13
2023-03-20T13:40:30.613Z,1.40
2023-03-20T13:43:06.533Z,1.80
2023-03-20T13:45:42.188Z,1.25
2023-03-20T13:48:33.699Z,1.50
2023-03-20T13:51:26.368Z,1.13
2023-03-20T13:54:07.993Z,2.65
2023-03-20T13:56:53.682Z,1.23
2023-03-20T13:59:47.023Z,3.00
2023-03-20T14:02:32.198Z,2.53
2023-03-20T14:05:22.626Z,1.83
2023-03-20T14:07:56.058Z,2.50
2023-03-20T14:10:23.278Z,1.02
2023-03-20T14:12:56.177Z,2.97
2023-03-20T14:15:27.122Z,1.20
2023-03-20T14:17:54.466Z,1.48
2023-03-20T14:20:38.583Z,2.47
2023-03-20T14:23:07.604Z,0.85
2023-03-20T14:25:42.394Z,1.75
2023-03-20T14:28:12.905Z,2.60
2023-03-20T14:30:49.374Z,2.78
2023-03-20T14:33:24.778Z,2.40
2023-03-20T14:36:19.143Z,3.30
2023-03-20T14:38:59.971Z,2.70
2023-03-20T14:42:03.527Z,1.85
2023-03-20T14:45:07.179Z,1.70
2023-03-20T14:47:46.644Z,3.50
2023-03-20T14:50:30.815Z,1.70
2023-03-20T14:53:18.984Z,4.63
2023-03-20T14:55:57.989Z,2.08
2023-03-20T14:58:50.082Z,3.70
2023-03-20T15:01:22.049Z,4.15
2023-03-20T15:03:57.985Z,3.00
2023-03-20T15:06:27.890Z,2.53
2023-03-20T15:09:02.915Z,6.15
2023-03-20T15:11:30.865Z,4.82
2023-03-20T15:14:00.104Z,2.85
2023-03-20T15:16:30.757Z,2.58
2023-03-20T15:18:58.483Z,2.90
2023-03-20T15:21:38.532Z,2.00
2023-03-20T15:24:05.824Z,2.35
2023-03-20T15:26:35.126Z,4.97
2023-03-20T15:29:10.925Z,3.35
2023-03-20T15:31:40.001Z,3.60
2023-03-20T15:34:30.933Z,3.33
2023-03-20T15:37:00.100Z,5.75
2023-03-20T15:39:29.696Z,2.50
2023-03-20T15:42:01.787Z,2.90
2023-03-20T15:44:36.830Z,2.70
2023-03-20T15:47:17.157Z,8.18
2023-03-20T15:49:58.576Z,4.68
2023-03-20T15:52:39.150Z,2.80
2023-03-20T15:55:16.801Z,5.30
2023-03-20T15:57:47.248Z,5.00
2023-03-20T16:00:16.888Z,5.38
2023-03-20T16:02:48.515Z,5.68
2023-03-20T16:05:17.727Z,6.30
2023-03-20T16:07:45.154Z,4.85
2023-03-20T16:10:29.093Z,7.50
2023-03-20T16:12:56.848Z,5.47
2023-03-20T16:15:27.957Z,5.75
2023-03-20T16:17:58.580Z,6.13
2023-03-20T16:20:30.577Z,6.30
2023-03-20T16:23:03.191Z,7.43
2023-03-20T16:25:30.407Z,5.80
2023-03-20T16:27:58.327Z,5.50
2023-03-20T16:30:30.889Z,6.97
2023-03-20T16:33:06.611Z,5.53
2023-03-20T16:35:45.879Z,4.70
2023-03-20T16:38:32.032Z,11.25
2023-03-20T16:41:17.069Z,7.38
2023-03-20T16:43:49.645Z,5.15
2023-03-20T16:46:24.933Z,5.85
2023-03-20T16:48:55.261Z,6.35
2023-03-20T16:51:31.358Z,12.68
2023-03-20T16:54:03.525Z,6.72
2023-03-20T16:56:34.835Z,8.13
2023-03-20T16:59:09.765Z,7.82
2023-03-20T17:01:41.923Z,6.88
2023-03-20T17:04:47.188Z,6.35
2023-03-20T17:07:19.295Z,7.30
2023-03-20T17:10:06.438Z,5.43
2023-03-20T17:12:33.834Z,7.07
2023-03-20T17:15:01.116Z,10.63
2023-03-20T17:17:28.310Z,8.68
2023-03-20T17:19:55.386Z,7.25
2023-03-20T17:22:25.829Z,7.22
2023-03-20T17:24:53.256Z,9.25
2023-03-20T17:27:21.190Z,8.60
2023-03-20T17:29:51.617Z,8.63
2023-03-20T17:32:25.723Z,5.72
2023-03-20T17:34:52.715Z,8.07
2023-03-20T17:37:29.675Z,5.47
2023-03-20T17:39:57.888Z,6.95
2023-03-20T17:42:31.122Z,7.15
2023-03-20T17:45:03.640Z,8.48
2023-03-20T17:47:31.479Z,7.82
2023-03-20T17:49:58.718Z,8.57
2023-03-20T17:52:28.351Z,6.07
2023-03-20T17:54:55.434Z,6.32
2023-03-20T17:57:33.700Z,4.88
2023-03-20T18:00:01.916Z,4.72
2023-03-20T18:02:28.930Z,4.13
2023-03-20T18:04:56.289Z,4.25
2023-03-20T18:07:23.397Z,3.88
2023-03-20T18:09:50.872Z,4.40
2023-03-20T18:12:19.094Z,3.90
2023-03-20T18:14:47.371Z,5.22
2023-03-20T18:17:15.455Z,6.28
2023-03-20T18:19:43.297Z,3.38
2023-03-20T18:22:11.045Z,3.55
2023-03-20T18:24:43.392Z,6.75
2023-03-20T18:27:12.390Z,2.75
2023-03-20T18:29:39.548Z,3.88
2023-03-20T18:32:06.543Z,3.88
2023-03-20T18:34:33.766Z,3.47
2023-03-20T18:37:00.899Z,5.10
2023-03-20T18:39:27.861Z,3.30
2023-03-20T18:41:55.127Z,3.28
2023-03-20T18:44:22.702Z,5.50
2023-03-20T18:46:49.951Z,3.13
2023-03-20T18:49:18.195Z,2.70
2023-03-20T18:51:45.959Z,3.13
2023-03-20T18:54:13.122Z,3.20
2023-03-20T18:56:40.819Z,3.47
2023-03-20T18:59:12.453Z,3.67
2023-03-20T19:01:39.496Z,4.60
2023-03-20T19:04:08.352Z,4.15
2023-03-20T19:06:35.642Z,2.47
2023-03-20T19:09:05.519Z,3.03
2023-03-20T19:11:32.860Z,4.80
2023-03-20T19:14:00.182Z,3.13
2023-03-20T19:16:33.376Z,3.97
2023-03-20T19:19:02.310Z,3.75
2023-03-20T19:21:31.506Z,3.90
2023-03-20T19:24:05.222Z,3.63
2023-03-20T19:26:33.724Z,3.70
2023-03-20T19:29:02.886Z,3.45
2023-03-20T19:31:30.065Z,4.40
2023-03-20T19:33:57.361Z,3.60
2023-03-20T19:36:34.533Z,2.78
2023-03-20T19:39:04.545Z,3.50
2023-03-20T19:41:32.648Z,3.78
2023-03-20T19:44:01.540Z,3.10
2023-03-20T19:46:39.848Z,3.63
2023-03-20T19:49:20.038Z,3.28
2023-03-20T19:51:48.669Z,3.40
2023-03-20T19:54:15.917Z,3.35
2023-03-20T19:56:43.308Z,3.38
2023-03-20T19:59:10.303Z,4.13
2023-03-20T20:01:37.387Z,4.20
2023-03-20T20:04:04.617Z,3.42
2023-03-20T20:06:33.170Z,3.83
2023-03-20T20:09:01.437Z,4.22
2023-03-20T20:11:28.831Z,3.85
2023-03-20T20:14:14.529Z,4.32
2023-03-20T20:16:43.611Z,4.82
2023-03-20T20:19:11.646Z,3.22
2023-03-20T20:24:26.834Z,4.18
2023-03-20T20:27:14.677Z,4.80
2023-03-20T20:29:43.003Z,4.97
2023-03-20T20:32:10.022Z,3.95
2023-03-20T20:35:30.820Z,6.28
2023-03-20T20:38:14.082Z,2.80
2023-03-20T20:40:15.998Z,3.90
2023-03-20T20:42:43.349Z,3.38
2023-03-20T20:45:14.673Z,4.75
2023-03-20T20:47:44.878Z,5.68
2023-03-20T20:50:18.216Z,5.13
2023-03-20T20:52:45.291Z,4.97
2023-03-20T20:55:23.165Z,4.82
2023-03-20T20:57:55.909Z,5.00
2023-03-20T21:00:37.211Z,5.68
2023-03-20T21:03:08.704Z,7.22
2023-03-20T21:05:37.738Z,6.07
2023-03-20T21:08:04.893Z,5.05
2023-03-20T21:10:32.399Z,7.38
2023-03-20T21:13:00.060Z,8.55
2023-03-20T21:15:28.237Z,7.25
2023-03-20T21:18:01.365Z,9.25
2023-03-20T21:20:32.433Z,9.65
2023-03-20T21:22:59.877Z,9.40
2023-03-20T21:25:47.028Z,9.25
2023-03-20T21:28:14.730Z,8.98
2023-03-20T21:30:54.449Z,9.13
2023-03-20T21:33:29.672Z,10.90
2023-03-20T21:35:56.841Z,8.15
2023-03-20T21:41:11.176Z,8.95
2023-03-20T21:43:39.781Z,9.57
2023-03-20T21:46:42.223Z,9.80
2023-03-20T21:55:06.713Z,7.50
2023-03-20T22:00:59.274Z,8.13
2023-03-20T22:02:55.438Z,8.40
2023-03-20T22:09:10.414Z,9.60
2023-03-20T22:11:45.015Z,10.55
2023-03-20T22:14:40.627Z,12.20
2023-03-20T22:17:30.154Z,13.45
2023-03-20T22:36:49.788Z,11.95
2023-03-20T22:47:12.592Z,16.63
2023-03-20T22:49:39.664Z,26.30
2023-03-20T22:52:24.443Z,22.15
2023-03-20T22:54:54.111Z,13.55
2023-03-20T22:57:26.598Z,15.32
2023-03-20T23:00:01.640Z,12.52
2023-03-20T23:02:28.801Z,11.05
2023-03-20T23:04:57.867Z,11.48
2023-03-20T23:07:25.425Z,10.07
2023-03-20T23:09:52.343Z,15.95
2023-03-20T23:12:19.288Z,10.43
2023-03-20T23:14:46.449Z,11.27
2023-03-20T23:17:13.719Z,11.10
2023-03-20T23:19:47.817Z,16.15
2023-03-20T23:22:17.563Z,9.32
2023-03-20T23:24:44.568Z,12.13
2023-03-20T23:27:11.556Z,10.10
2023-03-20T23:29:38.602Z,11.70
2023-03-20T23:32:06.161Z,9.75
2023-03-20T23:34:33.129Z,12.93
2023-03-20T23:37:00.217Z,10.73
2023-03-20T23:39:27.225Z,9.73
2023-03-20T23:42:09.917Z,7.80
2023-03-20T23:44:44.098Z,10.50
2023-03-20T23:47:20.320Z,12.55
2023-03-20T23:49:48.068Z,10.52
2023-03-20T23:52:15.786Z,12.15
2023-03-20T23:54:43.931Z,29.73
2023-03-20T23:57:13.591Z,36.30
2023-03-20T23:59:40.593Z,20.35
